createdAt,value
2019-04-27T00:00:47.700Z,93998.11
2019-04-27T00:06:05.402Z,94111.41
2019-04-27T00:11:11.218Z,94246.82
2019-04-27T00:16:18.647Z,94307.01
2019-04-27T00:21:39.720Z,94555.84
2019-04-27T00:26:45.619Z,94808.31
2019-04-27T00:31:53.402Z,94956.48
2019-04-27T00:37:17.331Z,94849.31
2019-04-27T00:42:24.865Z,94373.66
2019-04-27T00:47:30.850Z,94168.56
2019-04-27T00:52:36.634Z,94134.52
2019-04-27T00:58:00.719Z,94024.71
2019-04-27T01:03:11.340Z,93236.49
2019-04-27T01:08:17.156Z,92914.07
2019-04-27T01:13:23.085Z,92692.00
2019-04-27T01:18:28.982Z,91962.06
2019-04-27T01:23:34.754Z,91599.58
2019-04-27T01:28:43.224Z,91554.34
2019-04-27T01:33:49.060Z,91948.57
2019-04-27T01:38:55.951Z,92275.69
2019-04-27T01:44:01.834Z,92617.36
2019-04-27T01:49:09.180Z,92985.15
2019-04-27T01:54:16.633Z,93286.06
2019-04-27T01:59:22.446Z,93388.13
2019-04-27T02:04:29.789Z,93568.31
2019-04-27T02:09:35.684Z,93965.91
2019-04-27T02:14:41.484Z,94199.48
2019-04-27T02:19:47.344Z,94455.87
2019-04-27T02:24:53.158Z,94645.60
2019-04-27T02:30:16.823Z,94776.61
2019-04-27T02:35:22.659Z,94913.00
2019-04-27T02:40:51.005Z,95001.25
2019-04-27T02:45:56.926Z,95107.44
2019-04-27T02:51:04.351Z,95230.29
2019-04-27T02:56:11.284Z,95346.85
2019-04-27T03:01:20.126Z,95493.27
2019-04-27T03:06:26.048Z,95720.38
2019-04-27T03:11:32.677Z,95826.25
2019-04-27T03:16:49.667Z,95866.68
2019-04-27T03:21:59.192Z,95951.59
2019-04-27T03:27:06.320Z,96077.27
2019-04-27T03:32:13.069Z,96088.30
2019-04-27T03:37:20.302Z,96146.50
2019-04-27T03:42:26.406Z,96173.25
2019-04-27T03:47:32.263Z,96239.80
2019-04-27T03:52:43.762Z,96231.12
2019-04-27T03:58:00.430Z,96298.31
2019-04-27T04:03:06.565Z,96326.27
2019-04-27T04:08:12.431Z,96427.25
2019-04-27T04:13:22.443Z,96417.12
2019-04-27T04:18:29.361Z,96439.47
2019-04-27T04:23:34.123Z,96495.63
2019-04-27T04:28:39.619Z,96603.63
2019-04-27T04:33:45.553Z,96691.85
2019-04-27T04:38:50.658Z,96928.69
2019-04-27T04:44:14.013Z,97005.23
2019-04-27T04:49:19.525Z,97053.96
2019-04-27T04:54:25.020Z,97120.67
2019-04-27T04:59:31.116Z,97144.91
2019-04-27T05:04:39.005Z,97235.83
2019-04-27T05:09:45.319Z,97272.09
2019-04-27T05:14:54.578Z,97328.45
2019-04-27T05:20:02.111Z,97318.52
2019-04-27T05:25:09.317Z,97327.73
2019-04-27T05:30:16.095Z,97352.40
2019-04-27T05:35:22.235Z,97371.51
2019-04-27T05:40:30.942Z,97433.37
2019-04-27T05:46:09.956Z,97521.47
2019-04-27T05:51:16.059Z,97557.08
2019-04-27T05:56:22.097Z,97569.13
2019-04-27T06:01:29.661Z,97672.29
2019-04-27T06:06:35.781Z,97775.17
2019-04-27T06:11:44.892Z,97836.27
2019-04-27T06:16:51.333Z,97893.00
2019-04-27T06:22:01.031Z,97888.70
2019-04-27T06:27:05.615Z,97878.86
2019-04-27T06:32:11.973Z,97898.88
2019-04-27T06:37:19.304Z,97859.00
2019-04-27T06:42:25.731Z,97765.91
2019-04-27T06:47:31.802Z,97648.91
2019-04-27T06:52:39.036Z,97646.96
2019-04-27T06:57:45.251Z,97733.55
2019-04-27T07:02:55.161Z,97840.59
2019-04-27T07:08:00.000Z,97865.83
2019-04-27T07:13:05.967Z,97845.16
2019-04-27T07:18:11.992Z,97836.37
2019-04-27T07:23:18.744Z,97846.95
2019-04-27T07:28:25.821Z,97804.80
2019-04-27T07:33:31.870Z,97750.06
2019-04-27T07:38:39.401Z,97708.16
2019-04-27T07:43:50.098Z,97674.15
2019-04-27T07:48:56.054Z,97618.13
2019-04-27T07:54:01.927Z,97557.80
2019-04-27T07:59:09.138Z,97511.13
2019-04-27T08:04:18.745Z,97509.20
2019-04-27T08:09:24.712Z,97488.23
2019-04-27T08:14:30.650Z,97446.19
2019-04-27T08:19:36.700Z,97372.06
2019-04-27T08:24:42.616Z,97386.20
2019-04-27T08:29:53.350Z,97257.59
2019-04-27T08:34:59.561Z,97095.70
2019-04-27T08:40:09.460Z,97118.77
2019-04-27T08:45:16.018Z,97087.71
2019-04-27T08:50:22.033Z,96956.33
2019-04-27T08:55:29.457Z,96845.53
2019-04-27T09:00:35.554Z,96835.27
2019-04-27T09:05:41.641Z,96685.16
2019-04-27T09:10:59.039Z,96671.67
2019-04-27T09:16:12.825Z,96817.85
2019-04-27T09:21:19.224Z,96933.44
2019-04-27T09:26:25.234Z,96951.59
2019-04-27T09:31:31.164Z,97001.53
2019-04-27T09:36:37.544Z,97057.50
2019-04-27T09:41:43.558Z,97113.47
2019-04-27T09:46:49.517Z,97115.01
2019-04-27T09:51:55.812Z,97131.84
2019-04-27T09:57:02.041Z,97154.92
2019-04-27T10:02:08.605Z,97124.41
2019-04-27T10:07:16.565Z,97144.45
2019-04-27T10:12:22.627Z,97160.52
2019-04-27T10:17:29.689Z,97120.28
2019-04-27T10:22:41.102Z,97095.31
2019-04-27T10:27:46.174Z,97089.91
2019-04-27T10:32:52.153Z,97089.00
2019-04-27T10:37:58.118Z,97117.92
2019-04-27T10:43:06.141Z,97140.56
2019-04-27T10:48:12.219Z,97187.17
2019-04-27T10:53:18.268Z,97130.10
2019-04-27T10:58:25.432Z,97213.19
2019-04-27T11:03:49.690Z,97252.03
2019-04-27T11:08:56.156Z,97291.70
2019-04-27T11:14:02.310Z,97391.44
2019-04-27T11:19:08.730Z,97421.60
2019-04-27T11:24:14.761Z,97411.77
2019-04-27T11:29:21.181Z,97507.88
2019-04-27T11:34:45.955Z,97569.13
2019-04-27T11:39:52.196Z,97588.30
2019-04-27T11:44:58.421Z,97647.81
2019-04-27T11:50:08.423Z,97727.59
2019-04-27T11:55:16.214Z,97824.94
2019-04-27T12:00:23.535Z,97949.73
2019-04-27T12:05:29.190Z,98011.03
2019-04-27T12:10:36.338Z,98062.14
2019-04-27T12:15:42.635Z,98078.80
2019-04-27T12:20:48.645Z,98099.91
2019-04-27T12:25:56.318Z,98160.08
2019-04-27T12:31:04.081Z,98179.64
2019-04-27T12:36:10.263Z,98243.80
2019-04-27T12:41:16.230Z,98260.19
2019-04-27T12:46:22.266Z,98248.80
2019-04-27T12:51:28.296Z,98316.25
2019-04-27T12:56:51.089Z,98354.50
2019-04-27T13:01:57.317Z,98440.44
2019-04-27T13:07:03.371Z,98438.61
2019-04-27T13:12:09.457Z,98481.14
2019-04-27T13:17:16.447Z,98499.98
2019-04-27T13:22:22.688Z,98522.14
2019-04-27T13:27:28.718Z,98505.18
2019-04-27T13:32:36.408Z,98552.64
2019-04-27T13:37:44.202Z,98569.83
2019-04-27T13:42:57.282Z,98608.73
2019-04-27T13:48:09.188Z,98601.88
2019-04-27T13:53:16.786Z,98672.02
2019-04-27T13:58:22.986Z,98620.16
2019-04-27T14:03:29.935Z,98885.60
2019-04-27T14:08:36.039Z,99200.68
2019-04-27T14:13:41.934Z,99115.42
2019-04-27T14:18:48.198Z,99123.19
2019-04-27T14:23:54.222Z,99410.38
2019-04-27T14:29:00.238Z,99543.16
2019-04-27T14:34:06.225Z,99575.09
2019-04-27T14:39:12.787Z,99574.14
2019-04-27T14:44:18.857Z,99568.29
2019-04-27T14:49:24.935Z,99668.13
2019-04-27T14:54:45.095Z,99787.05
2019-04-27T14:59:38.646Z,99867.70
2019-04-27T15:04:45.557Z,99931.91
2019-04-27T15:09:54.449Z,99984.16
2019-04-27T15:15:01.495Z,99968.59
2019-04-27T15:20:15.491Z,99999.80
2019-04-27T15:25:21.524Z,100088.45
2019-04-27T15:30:29.068Z,100151.38
2019-04-27T15:35:51.744Z,100157.13
2019-04-27T15:41:08.907Z,100137.42
2019-04-27T15:46:15.083Z,100158.14
2019-04-27T15:51:21.345Z,100174.22
2019-04-27T15:56:30.433Z,100186.74
2019-04-27T16:01:36.137Z,100188.72
2019-04-27T16:06:47.372Z,100210.66
2019-04-27T16:11:58.359Z,100251.61
2019-04-27T16:16:58.908Z,100250.25
2019-04-27T16:22:05.158Z,100266.56
2019-04-27T16:27:11.243Z,100343.68
2019-04-27T16:32:17.770Z,100402.05
2019-04-27T16:37:41.750Z,100415.41
2019-04-27T16:42:50.683Z,100449.33
2019-04-27T16:47:56.560Z,100426.29
2019-04-27T16:53:03.417Z,100419.66
2019-04-27T16:58:15.705Z,100426.25
2019-04-27T17:03:18.128Z,100367.51
2019-04-27T17:08:26.586Z,100290.66
2019-04-27T17:13:35.764Z,100228.16
2019-04-27T17:18:46.284Z,100141.75
2019-04-27T17:23:52.369Z,100084.81
2019-04-27T17:28:59.969Z,99976.23
2019-04-27T17:34:08.026Z,99919.06
2019-04-27T17:39:13.983Z,99882.29
2019-04-27T17:44:23.168Z,99882.34
2019-04-27T17:49:28.419Z,99944.48
2019-04-27T17:54:34.301Z,99901.56
2019-04-27T17:59:40.320Z,99598.66
2019-04-27T18:04:48.386Z,99302.80
2019-04-27T18:09:54.433Z,99076.08
2019-04-27T18:15:00.556Z,98905.55
2019-04-27T18:20:18.433Z,98990.95
2019-04-27T18:25:24.977Z,99196.15
2019-04-27T18:30:33.660Z,99197.50
2019-04-27T18:35:40.445Z,99197.05
2019-04-27T18:40:46.450Z,99014.64
2019-04-27T18:45:52.136Z,98836.13
2019-04-27T18:51:05.909Z,98815.52
2019-04-27T18:56:12.086Z,98904.51
2019-04-27T19:01:18.748Z,99191.85
2019-04-27T19:06:24.749Z,99263.28
2019-04-27T19:11:31.893Z,99445.64
2019-04-27T19:16:38.463Z,99564.95
2019-04-27T19:21:44.946Z,99704.20
2019-04-27T19:27:16.176Z,99783.52
2019-04-27T19:32:15.779Z,99804.56
2019-04-27T19:37:21.916Z,99838.03
2019-04-27T19:42:28.642Z,99862.72
2019-04-27T19:47:34.832Z,99785.00
2019-04-27T19:52:40.726Z,99704.59
2019-04-27T19:57:46.754Z,99440.84
2019-04-27T20:02:52.853Z,99383.05
2019-04-27T20:08:00.484Z,99411.00
2019-04-27T20:13:06.562Z,99304.60
2019-04-27T20:18:12.591Z,98983.73
2019-04-27T20:23:22.253Z,98741.33
2019-04-27T20:28:27.530Z,98645.14
2019-04-27T20:33:33.669Z,98503.05
2019-04-27T20:38:41.833Z,98331.93
2019-04-27T20:43:47.881Z,98133.70
2019-04-27T20:48:53.656Z,98182.31
2019-04-27T20:54:01.765Z,98268.39
2019-04-27T20:59:07.666Z,98323.74
2019-04-27T21:04:14.257Z,98365.36
2019-04-27T21:09:21.315Z,98410.64
2019-04-27T21:14:27.283Z,98439.67
2019-04-27T21:19:33.159Z,98450.37
2019-04-27T21:24:38.935Z,98474.31
2019-04-27T21:29:44.862Z,98498.14
2019-04-27T21:34:51.552Z,98506.00
2019-04-27T21:40:17.019Z,98503.16
2019-04-27T21:45:22.809Z,98509.66
2019-04-27T21:50:28.589Z,98501.22
2019-04-27T21:55:35.914Z,98508.58
2019-04-27T22:00:43.278Z,98503.78
2019-04-27T22:05:51.615Z,98511.93
2019-04-27T22:10:57.572Z,98489.45
2019-04-27T22:16:03.439Z,98475.75
2019-04-27T22:21:09.198Z,98467.09
2019-04-27T22:26:15.617Z,98456.23
2019-04-27T22:31:21.701Z,98463.11
2019-04-27T22:36:27.452Z,98436.70
2019-04-27T22:41:34.848Z,98427.58
2019-04-27T22:46:48.430Z,98437.45
2019-04-27T22:51:54.120Z,98428.86
2019-04-27T22:57:01.454Z,98437.52
2019-04-27T23:02:08.777Z,98442.22
2019-04-27T23:07:14.538Z,98444.48
2019-04-27T23:12:21.178Z,98442.28
2019-04-27T23:17:35.702Z,98423.62
2019-04-27T23:22:41.442Z,98415.45
2019-04-27T23:27:47.139Z,98414.42
2019-04-27T23:32:53.693Z,98396.14
2019-04-27T23:38:04.739Z,98375.70
2019-04-27T23:43:07.012Z,98382.59
2019-04-27T23:48:12.776Z,98392.14
2019-04-27T23:53:21.900Z,98374.69
2019-04-27T23:58:27.669Z,98324.77
